Time;durP1;ratioP1;P1;durP2;ratioP2;P2;SDS_P1;SDS_P2;PMS_P1;PMS_P2;Temp;Humidity;BMP_temperature;BMP_pressure;BME280_temperature;BME280_humidity;BME280_pressure;Samples;Min_cycle;Max_cycle;Signal;HPM_P1;HPM_P2
2021/01/24 00:01:42;;;;;;;14.93;8.13;;;;;;;3.58;73.07;99521.63;5095090;28;20055;-70
2021/01/24 00:04:09;;;;;;;16.40;7.97;;;;;;;3.45;72.64;99527.84;5094225;28;20051;-74
2021/01/24 00:11:10;;;;;;;18.58;7.90;;;;;;;3.88;71.26;99529.28;5095734;28;20080;-74
2021/01/24 00:13:37;;;;;;;17.80;8.63;;;;;;;3.57;72.05;99525.47;5095091;28;20140;-75
2021/01/24 00:16:05;;;;;;;19.58;8.40;;;;;;;3.51;72.06;99523.91;5094176;28;20043;-73
2021/01/24 00:18:32;;;;;;;21.70;8.70;;;;;;;3.50;72.32;99537.81;5094760;28;20395;-73
2021/01/24 00:20:59;;;;;;;21.33;8.07;;;;;;;3.68;71.37;99542.44;5095106;28;20052;-71
2021/01/24 00:23:26;;;;;;;18.60;8.07;;;;;;;3.92;71.13;99538.50;5078135;28;20048;-75
2021/01/24 00:25:52;;;;;;;15.57;8.73;;;;;;;3.82;70.75;99546.81;5094827;28;20058;-79
2021/01/24 00:28:21;;;;;;;17.60;8.27;;;;;;;3.72;70.84;99549.72;5077064;28;20051;-78
2021/01/24 00:30:49;;;;;;;23.48;8.57;;;;;;;3.91;70.89;99550.47;5094674;28;20048;-78
2021/01/24 00:33:15;;;;;;;17.83;7.68;;;;;;;3.81;70.30;99558.81;5080022;28;20059;-79
2021/01/24 00:35:42;;;;;;;21.75;8.68;;;;;;;3.92;70.06;99557.56;5097995;28;20048;-78
2021/01/24 00:38:10;;;;;;;18.00;7.70;;;;;;;3.95;69.86;99556.97;5077357;28;20063;-77
2021/01/24 00:40:37;;;;;;;18.50;8.02;;;;;;;3.75;70.24;99560.00;5094284;28;20059;-74
2021/01/24 00:43:04;;;;;;;15.48;7.30;;;;;;;3.74;70.19;99563.84;5095132;28;20384;-75
2021/01/24 00:45:31;;;;;;;14.75;7.18;;;;;;;3.51;70.54;99564.75;5093542;28;20048;-77
2021/01/24 00:48:00;;;;;;;;;;;;;;;3.36;71.40;99564.97;5092511;28;20056;-78
2021/01/24 00:50:28;;;;;;;20.65;7.82;;;;;;;3.38;71.06;99569.00;5074197;28;19920;-76
2021/01/24 00:52:55;;;;;;;15.43;7.72;;;;;;;3.30;71.51;99571.56;5094789;28;20044;-78
2021/01/24 00:55:23;;;;;;;15.98;7.63;;;;;;;3.45;71.09;99568.66;5060090;28;20487;-77
2021/01/24 00:57:49;;;;;;;17.55;7.50;;;;;;;3.54;70.20;99574.25;5093998;28;20052;-77
2021/01/24 01:00:17;;;;;;;16.77;7.70;;;;;;;3.21;71.20;99573.34;5094011;28;20055;-78
2021/01/24 01:02:44;;;;;;;17.95;7.00;;;;;;;3.38;70.61;99585.34;5093908;28;20062;-75
2021/01/24 01:05:11;;;;;;;16.17;6.88;;;;;;;3.51;70.49;99582.97;5094559;28;20051;-73
2021/01/24 01:07:38;;;;;;;21.88;7.28;;;;;;;3.43;70.22;99579.81;5094482;28;20055;-73
2021/01/24 01:10:05;;;;;;;16.95;7.07;;;;;;;3.44;70.67;99586.91;5093759;28;20518;-71
2021/01/24 01:12:32;;;;;;;16.13;7.13;;;;;;;3.47;70.39;99590.91;5093792;28;20074;-70
2021/01/24 01:14:59;;;;;;;16.27;6.90;;;;;;;3.56;70.01;99593.81;5094158;28;20426;-69
2021/01/24 01:17:26;;;;;;;15.63;6.68;;;;;;;3.50;69.84;99603.16;5094970;28;20048;-73
2021/01/24 01:19:53;;;;;;;15.05;5.90;;;;;;;3.35;70.75;99598.72;5095611;28;20059;-71
2021/01/24 01:22:20;;;;;;;12.95;5.95;;;;;;;3.29;70.60;99600.72;5094780;28;20083;-72
2021/01/24 01:24:47;;;;;;;19.15;6.72;;;;;;;3.22;69.98;99602.19;5095157;28;20048;-78
2021/01/24 01:27:14;;;;;;;19.75;6.85;;;;;;;3.22;70.74;99602.19;5095977;28;20040;-80
2021/01/24 01:29:40;;;;;;;14.13;7.28;;;;;;;3.40;70.21;99604.09;5076844;28;20510;-72
2021/01/24 01:32:07;;;;;;;16.40;6.47;;;;;;;3.49;70.10;99598.81;5095510;28;20048;-77
2021/01/24 01:34:34;;;;;;;14.40;6.45;;;;;;;3.44;70.32;99608.66;5097335;28;20052;-72
2021/01/24 01:37:01;;;;;;;15.48;6.68;;;;;;;3.13;70.46;99607.47;5061255;28;20055;-70
2021/01/24 01:39:28;;;;;;;12.43;5.88;;;;;;;3.12;70.63;99613.97;5093461;28;20047;-73
2021/01/24 01:41:55;;;;;;;12.63;6.20;;;;;;;3.11;69.98;99612.38;5075647;28;20495;-72
2021/01/24 01:44:22;;;;;;;12.93;6.20;;;;;;;3.15;70.12;99615.31;5093277;28;20048;-70
2021/01/24 01:46:52;;;;;;;14.23;6.47;;;;;;;3.04;70.52;99621.97;5075629;28;20055;-73
2021/01/24 01:49:18;;;;;;;;;;;;;;;3.06;70.73;99628.75;5094423;28;20297;-73
2021/01/24 01:56:14;;;;;;;14.55;5.68;;;;;;;2.87;70.42;99622.47;5093544;28;20036;-73
2021/01/24 01:58:44;;;;;;;13.50;6.30;;;;;;;2.92;71.03;99627.84;5093330;28;20048;-72
2021/01/24 02:01:53;;;;;;;14.90;8.10;;;;;;;3.38;70.28;99631.59;5093517;28;20055;-71
2021/01/24 02:04:30;;;;;;;13.93;6.43;;;;;;;3.34;69.85;99640.66;5074642;28;20055;-70
2021/01/24 02:11:35;;;;;;;13.88;5.82;;;;;;;3.15;69.98;99645.25;5095583;28;20047;-69
2021/01/24 02:14:28;;;;;;;17.92;5.68;;;;;;;3.14;69.76;99649.88;5062367;28;20048;-69
2021/01/24 02:16:56;;;;;;;15.73;6.07;;;;;;;3.03;70.24;99648.38;5077406;28;20056;-70
2021/01/24 02:19:38;;;;;;;18.08;5.75;;;;;;;2.89;70.67;99654.81;5075637;28;20052;-71
2021/01/24 02:26:32;;;;;;;14.70;5.97;;;;;;;2.80;70.90;99660.06;5053120;28;20049;-69
2021/01/24 02:29:13;;;;;;;14.85;6.38;;;;;;;3.12;69.97;99662.94;5052513;28;20400;-74
2021/01/24 02:31:41;;;;;;;14.00;5.50;;;;;;;3.28;69.97;99666.28;5053155;28;20041;-73
2021/01/24 02:34:09;;;;;;;13.25;5.30;;;;;;;3.26;69.22;99663.09;5053177;28;20049;-78
2021/01/24 02:41:00;;;;;;;10.73;4.47;;;;;;;3.20;69.06;99680.56;5057092;28;20053;-69
2021/01/24 02:43:27;;;;;;;14.48;4.40;;;;;;;2.93;70.01;99680.34;5051266;28;20528;-71
2021/01/24 02:45:54;;;;;;;14.93;5.10;;;;;;;3.10;69.39;99677.97;5051042;28;20053;-71
2021/01/24 02:48:21;;;;;;;12.95;4.78;;;;;;;2.76;70.38;99685.38;5053129;28;20060;-70
2021/01/24 02:50:49;;;;;;;14.80;5.20;;;;;;;2.71;70.65;99690.88;5051249;28;20056;-71
2021/01/24 02:53:17;;;;;;;11.68;5.15;;;;;;;2.79;70.87;99685.63;5053374;28;20496;-70
2021/01/24 02:55:44;;;;;;;12.95;4.88;;;;;;;2.94;70.49;99684.66;5051548;28;20064;-70
2021/01/24 02:58:12;;;;;;;17.02;4.93;;;;;;;2.75;70.42;99689.22;5051087;28;20056;-70
2021/01/24 03:00:39;;;;;;;12.13;5.20;;;;;;;2.74;70.98;99688.41;5053247;28;20045;-69
2021/01/24 03:03:06;;;;;;;14.75;5.20;;;;;;;2.74;71.40;99688.41;5055272;28;20412;-68
2021/01/24 03:05:33;;;;;;;10.48;5.30;;;;;;;2.69;71.22;99696.59;5055259;28;20389;-71
2021/01/24 03:08:00;;;;;;;13.10;5.03;;;;;;;2.50;71.72;99692.97;5058650;28;20053;-72
2021/01/24 03:10:27;;;;;;;12.75;4.90;;;;;;;2.71;71.57;99705.28;5051863;28;20080;-77
2021/01/24 03:13:19;;;;;;;17.90;5.13;;;;;;;2.64;71.84;99702.09;5052725;28;20111;-79
2021/01/24 03:15:47;;;;;;;15.80;5.28;;;;;;;3.00;71.18;99703.34;5051814;28;20055;-75
2021/01/24 03:18:21;;;;;;;15.65;4.70;;;;;;;2.81;70.70;99709.81;5050824;28;20049;-76
2021/01/24 03:20:49;;;;;;;17.58;5.25;;;;;;;2.83;70.99;99702.19;5051237;28;20500;-76
2021/01/24 03:23:16;;;;;;;14.48;5.10;;;;;;;2.71;71.21;99715.34;5051208;28;20404;-76
2021/01/24 03:25:43;;;;;;;16.98;5.68;;;;;;;2.55;72.04;99711.97;5082416;28;20060;-79
2021/01/24 03:28:10;;;;;;;12.35;4.55;;;;;;;2.60;71.74;99711.13;5092664;28;20059;-77
2021/01/24 03:30:37;;;;;;;12.55;5.05;;;;;;;2.69;71.38;99717.53;5074586;28;20137;-73
2021/01/24 03:33:05;;;;;;;12.20;4.72;;;;;;;2.68;71.47;99715.94;5074886;28;20486;-77
2021/01/24 03:35:32;;;;;;;12.48;4.63;;;;;;;2.42;72.15;99718.06;5057819;28;20055;-75
2021/01/24 03:37:59;;;;;;;14.35;4.97;;;;;;;2.57;72.09;99719.81;5073974;28;20048;-77
2021/01/24 03:40:26;;;;;;;12.07;4.75;;;;;;;2.55;71.71;99714.69;5076335;28;20047;-74
2021/01/24 03:42:53;;;;;;;12.27;4.65;;;;;;;2.73;71.94;99715.88;5078291;28;20060;-78
2021/01/24 03:45:20;;;;;;;13.80;4.75;;;;;;;2.67;71.76;99715.09;5078145;28;20059;-75
2021/01/24 03:47:47;;;;;;;15.55;4.82;;;;;;;2.65;72.12;99720.00;5095566;28;20067;-73
2021/01/24 03:50:14;;;;;;;13.77;4.80;;;;;;;2.64;71.92;99710.25;5095344;28;20495;-71
2021/01/24 03:52:41;;;;;;;10.43;4.55;;;;;;;2.57;72.21;99712.50;5096085;28;20044;-75
2021/01/24 03:55:08;;;;;;;12.38;5.18;;;;;;;2.44;72.23;99715.84;5096376;28;20051;-76
2021/01/24 03:57:35;;;;;;;15.75;4.78;;;;;;;2.56;72.06;99719.03;5095492;28;20075;-76
2021/01/24 04:00:06;;;;;;;8.95;4.28;;;;;;;2.94;70.90;99712.69;5095315;28;20044;-76
2021/01/24 04:02:38;;;;;;;13.88;4.78;;;;;;;2.94;71.02;99717.31;5095570;28;20044;-77
2021/01/24 04:05:06;;;;;;;12.65;4.80;;;;;;;3.11;70.25;99709.50;5094923;28;20051;-73
2021/01/24 04:07:34;;;;;;;11.40;4.88;;;;;;;2.97;69.72;99722.16;5060577;28;20047;-74
2021/01/24 04:10:02;;;;;;;10.45;4.53;;;;;;;3.18;70.28;99720.84;5077156;28;20384;-72
2021/01/24 04:12:29;;;;;;;15.55;4.50;;;;;;;3.13;70.14;99723.63;5077780;28;20047;-70
2021/01/24 04:14:56;;;;;;;12.02;4.35;;;;;;;3.15;69.96;99713.25;5095187;28;20058;-69
2021/01/24 04:17:23;;;;;;;10.75;4.32;;;;;;;3.23;69.46;99720.78;5077506;28;20055;-73
2021/01/24 04:19:50;;;;;;;15.73;4.47;;;;;;;2.94;70.14;99725.47;5095298;28;20252;-70
2021/01/24 04:26:54;;;;;;;12.77;4.28;;;;;;;2.67;71.23;99720.53;5054402;28;20049;-71
2021/01/24 04:29:21;;;;;;;11.93;4.22;;;;;;;2.70;71.39;99716.47;5054433;28;20057;-69
2021/01/24 04:31:48;;;;;;;13.15;4.85;;;;;;;2.75;71.41;99716.41;5054429;28;20052;-69
2021/01/24 04:34:15;;;;;;;12.52;4.47;;;;;;;2.91;70.64;99728.75;5057297;28;20057;-71
2021/01/24 04:41:19;;;;;;;13.68;4.50;;;;;;;2.80;70.60;99714.44;5054711;28;20041;-70
2021/01/24 04:43:47;;;;;;;10.73;3.92;;;;;;;2.59;71.38;99721.16;5053565;28;20049;-78
2021/01/24 04:46:14;;;;;;;12.05;4.45;;;;;;;2.72;71.19;99733.31;5053220;28;20052;-75
2021/01/24 04:48:41;;;;;;;10.45;4.07;;;;;;;3.05;70.63;99724.25;5052796;28;20049;-73
2021/01/24 04:51:11;;;;;;;8.60;4.20;;;;;;;2.86;70.55;99732.31;5053591;28;20060;-72
2021/01/24 04:53:39;;;;;;;11.55;4.10;;;;;;;2.78;70.97;99726.69;5036554;28;20138;-74
2021/01/24 04:56:06;;;;;;;14.18;4.13;;;;;;;3.17;69.56;99728.19;5054516;28;20048;-76
2021/01/24 04:58:33;;;;;;;10.32;4.47;;;;;;;2.96;69.77;99731.44;5053353;28;20049;-74
2021/01/24 05:01:00;;;;;;;9.07;3.70;;;;;;;3.05;69.74;99732.44;5055154;28;20369;-74
2021/01/24 05:03:27;;;;;;;10.35;4.13;;;;;;;2.84;70.06;99733.72;5037230;28;20056;-76
2021/01/24 05:05:55;;;;;;;9.32;3.92;;;;;;;2.84;70.22;99734.50;5053012;28;20049;-75
2021/01/24 05:08:22;;;;;;;8.80;3.88;;;;;;;2.76;70.22;99735.16;5054786;28;20507;-69
2021/01/24 05:10:54;;;;;;;13.90;4.20;;;;;;;3.10;70.34;99740.53;5053719;28;20052;-77
2021/01/24 05:13:27;;;;;;;9.75;4.15;;;;;;;3.20;69.07;99735.78;5053993;28;20045;-75
2021/01/24 05:15:58;;;;;;;11.95;4.07;;;;;;;3.07;69.82;99741.09;5038350;28;20511;-75
2021/01/24 05:18:25;;;;;;;16.75;4.22;;;;;;;3.37;68.75;99747.03;5053080;28;20052;-75
2021/01/24 05:20:53;;;;;;;11.35;4.50;;;;;;;3.55;68.17;99742.72;5054081;28;20049;-75
2021/01/24 05:23:21;;;;;;;11.70;4.07;;;;;;;3.09;69.01;99745.16;5035607;28;20053;-70
2021/01/24 05:25:48;;;;;;;12.73;4.65;;;;;;;3.22;69.02;99746.38;5077287;28;20040;-70
2021/01/24 05:28:23;;;;;;;11.48;4.40;;;;;;;2.96;69.78;99748.56;5094625;28;20487;-73
2021/01/24 05:31:02;;;;;;;10.68;3.58;;;;;;;3.06;69.42;99750.34;5076332;28;20059;-73
2021/01/24 05:33:29;;;;;;;11.93;4.03;;;;;;;3.12;69.33;99744.56;5094310;28;20051;-69
2021/01/24 05:35:56;;;;;;;9.57;3.75;;;;;;;2.96;70.11;99745.84;5075034;28;20495;-69
2021/01/24 05:38:28;;;;;;;8.95;4.03;;;;;;;2.89;70.45;99750.00;5075829;28;20048;-69
2021/01/24 05:41:15;;;;;;;11.80;4.03;;;;;;;3.07;69.97;99747.34;5075945;28;20400;-70
2021/01/24 05:43:43;;;;;;;14.90;4.63;;;;;;;3.22;69.26;99757.25;5074897;28;20460;-67
2021/01/24 05:46:11;;;;;;;12.95;3.85;;;;;;;3.34;68.62;99753.06;5075501;28;20066;-69
2021/01/24 05:48:49;;;;;;;11.30;3.47;;;;;;;3.67;68.02;99742.28;5075184;28;20048;-72
2021/01/24 05:51:17;;;;;;;11.77;3.80;;;;;;;3.37;68.23;99746.19;5059009;28;20044;-75
2021/01/24 05:53:47;;;;;;;9.23;3.60;;;;;;;3.36;68.40;99744.59;5093125;28;20059;-76
2021/01/24 05:56:17;;;;;;;;;;;;;;;2.98;69.26;99759.16;5093353;28;20063;-74
2021/01/24 05:58:44;;;;;;;9.52;3.88;;;;;;;3.10;69.37;99746.75;5092903;28;19920;-73
2021/01/24 06:01:13;;;;;;;8.63;3.53;;;;;;;3.13;69.29;99759.81;5093568;28;20055;-76
2021/01/24 06:03:40;;;;;;;8.27;3.40;;;;;;;3.18;68.48;99750.78;5074374;28;20494;-78
2021/01/24 06:06:07;;;;;;;15.18;4.05;;;;;;;3.06;69.22;99755.78;5075423;28;20517;-73
2021/01/24 06:08:33;;;;;;;11.02;3.90;;;;;;;3.32;68.36;99755.25;5092977;28;20120;-73
2021/01/24 06:11:01;;;;;;;12.45;4.10;;;;;;;3.34;68.42;99755.78;5093197;28;20044;-77
2021/01/24 06:13:28;;;;;;;12.65;4.35;;;;;;;3.26;68.52;99755.59;5075619;28;20052;-73
2021/01/24 06:16:04;;;;;;;9.73;3.45;;;;;;;2.98;69.08;99764.59;5093220;28;20061;-77
2021/01/24 06:18:44;;;;;;;13.07;3.53;;;;;;;3.24;69.23;99760.50;5092630;28;20048;-76
2021/01/24 06:21:13;;;;;;;;;;;;;;;3.15;69.34;99764.97;5075279;28;20487;-71
2021/01/24 06:23:48;;;;;;;12.35;3.30;;;;;;;3.34;68.41;99765.84;5074497;28;19920;-74
2021/01/24 06:26:16;;;;;;;13.18;4.25;;;;;;;3.37;67.90;99760.63;5073994;28;20048;-76
2021/01/24 06:28:45;;;;;;;11.10;3.40;;;;;;;3.17;68.58;99758.13;5074347;28;20048;-75
2021/01/24 06:31:16;;;;;;;6.85;3.25;;;;;;;3.27;68.30;99752.59;5057940;28;20071;-74
2021/01/24 06:33:50;;;;;;;12.45;3.60;;;;;;;3.17;69.08;99758.13;5074275;28;20376;-73
2021/01/24 06:36:17;;;;;;;10.63;3.50;;;;;;;3.00;69.14;99757.75;5074572;28;20056;-74
2021/01/24 06:38:52;;;;;;;8.80;3.13;;;;;;;3.14;68.59;99764.13;5074705;28;20055;-70
2021/01/24 06:41:45;;;;;;;15.10;3.30;;;;;;;3.09;68.44;99768.81;5074362;28;20048;-77
2021/01/24 06:44:40;;;;;;;8.27;3.75;;;;;;;2.96;68.80;99767.59;5093995;28;20051;-78
2021/01/24 06:47:43;;;;;;;10.90;2.78;;;;;;;2.97;68.57;99769.22;5092904;28;20062;-76
2021/01/24 06:54:07;;;;;;;15.23;3.45;;;;;;;3.10;68.57;99770.44;5057948;28;20047;-74
2021/01/24 06:56:36;;;;;;;10.55;3.30;;;;;;;3.06;68.38;99772.13;5093293;28;20403;-72
2021/01/24 06:59:03;;;;;;;8.90;2.90;;;;;;;3.44;67.94;99758.38;5096333;28;20052;-72
2021/01/24 07:01:38;;;;;;;10.02;3.05;;;;;;;3.25;67.94;99767.56;5075247;28;20055;-76
2021/01/24 07:04:16;;;;;;;8.18;2.97;;;;;;;3.60;67.29;99763.63;5092983;28;20063;-77
2021/01/24 07:06:47;;;;;;;9.40;3.13;;;;;;;3.73;66.40;99765.66;5093168;28;20052;-78
2021/01/24 07:09:29;;;;;;;18.00;7.47;;;;;;;3.41;66.95;99769.03;5093047;28;20399;-74
2021/01/24 07:12:00;;;;;;;16.48;7.20;;;;;;;3.29;67.22;99768.63;5092931;28;20055;-79
2021/01/24 07:14:33;;;;;;;11.32;4.00;;;;;;;3.48;67.06;99769.50;5076651;28;20422;-75
2021/01/24 07:17:09;;;;;;;9.80;3.53;;;;;;;3.42;66.63;99767.91;5096923;28;20052;-79
2021/01/24 07:19:42;;;;;;;6.95;3.13;;;;;;;3.25;67.46;99764.84;5096072;28;20059;-77
2021/01/24 07:22:10;;;;;;;11.13;3.70;;;;;;;3.04;67.93;99777.03;5095859;28;20067;-78
2021/01/24 07:24:38;;;;;;;9.73;3.50;;;;;;;3.32;67.51;99776.19;5077461;28;20044;-80
2021/01/24 07:27:07;;;;;;;15.57;4.63;;;;;;;3.30;67.45;99775.66;5096595;28;20051;-78
2021/01/24 07:29:35;;;;;;;13.00;3.30;;;;;;;3.31;67.65;99780.03;5078664;28;20110;-73
2021/01/24 07:32:06;;;;;;;9.48;3.35;;;;;;;3.41;67.21;99786.19;5096421;28;20047;-79
2021/01/24 07:34:33;;;;;;;7.53;3.35;;;;;;;3.35;67.16;99797.38;5077256;28;20056;-76
2021/01/24 07:37:01;;;;;;;12.55;4.00;;;;;;;3.39;66.87;99793.81;5078335;28;20051;-79
2021/01/24 07:39:29;;;;;;;7.75;3.58;;;;;;;3.46;66.86;99812.53;5097699;28;20056;-80
2021/01/24 07:41:56;;;;;;;13.43;3.95;;;;;;;3.49;66.51;99800.25;5097927;28;20387;-77
2021/01/24 07:44:23;;;;;;;11.40;3.78;;;;;;;3.12;67.31;99807.13;5097428;28;20059;-79
2021/01/24 07:46:50;;;;;;;10.73;3.78;;;;;;;3.34;67.27;99810.22;5080928;28;20048;-79
2021/01/24 07:49:17;;;;;;;9.75;3.47;;;;;;;3.18;67.61;99813.34;5099591;28;20044;-76
2021/01/24 07:51:44;;;;;;;9.13;3.75;;;;;;;3.33;67.38;99808.56;5102089;28;20043;-81
2021/01/24 07:54:11;;;;;;;14.20;3.65;;;;;;;3.10;67.87;99817.50;5083091;28;20047;-78
2021/01/24 07:56:38;;;;;;;9.05;3.60;;;;;;;3.36;66.96;99820.78;5061820;28;20058;-77
2021/01/24 07:59:06;;;;;;;12.50;4.43;;;;;;;2.97;68.19;99807.28;5077029;28;20055;-78
2021/01/24 08:01:34;;;;;;;8.57;3.40;;;;;;;3.11;67.51;99815.59;5077829;28;20048;-77
2021/01/24 08:04:03;;;;;;;6.68;3.13;;;;;;;3.29;67.55;99812.97;5077174;28;20044;-74
2021/01/24 08:06:32;;;;;;;9.48;3.33;;;;;;;3.30;67.34;99811.03;5095476;28;20044;-73
2021/01/24 08:08:59;;;;;;;13.77;3.95;;;;;;;3.56;67.07;99815.13;5094615;28;20052;-73
2021/01/24 08:11:28;;;;;;;13.85;4.28;;;;;;;3.49;66.35;99822.03;5077441;28;20059;-74
2021/01/24 08:13:55;;;;;;;10.38;3.42;;;;;;;3.49;66.11;99827.47;5094828;28;20052;-71
2021/01/24 08:16:28;;;;;;;9.25;4.00;;;;;;;3.26;66.77;99829.06;5060746;28;20048;-73
2021/01/24 08:18:56;;;;;;;10.30;3.60;;;;;;;3.35;66.44;99828.13;5076993;28;20052;-74
2021/01/24 08:21:29;;;;;;;8.70;3.78;;;;;;;3.34;66.46;99823.81;5062395;28;20040;-69
2021/01/24 08:23:57;;;;;;;11.07;4.03;;;;;;;3.43;66.17;99824.78;5094304;28;20059;-73
2021/01/24 08:26:33;;;;;;;11.52;3.92;;;;;;;3.47;65.72;99818.78;5093871;28;20372;-75
2021/01/24 08:29:00;;;;;;;10.48;3.45;;;;;;;3.33;65.74;99830.34;5077108;28;20044;-72
2021/01/24 08:31:27;;;;;;;13.90;3.88;;;;;;;3.41;65.69;99827.00;5094109;28;20059;-68
2021/01/24 08:33:55;;;;;;;9.98;3.70;;;;;;;3.55;65.77;99832.56;5094436;28;20052;-70
2021/01/24 08:36:25;;;;;;;21.35;8.52;;;;;;;3.51;65.29;99839.69;5094460;28;20055;-71
2021/01/24 08:38:56;;;;;;;19.13;7.18;;;;;;;3.59;64.91;99838.25;5076659;28;20062;-68
2021/01/24 08:41:45;;;;;;;19.90;8.25;;;;;;;3.74;64.76;99835.34;5094126;28;20052;-74
2021/01/24 08:44:16;;;;;;;13.40;4.25;;;;;;;3.62;64.65;99835.75;5059324;28;20044;-69
2021/01/24 08:46:44;;;;;;;10.20;4.75;;;;;;;3.64;64.98;99830.03;5094570;28;20055;-70
2021/01/24 08:49:27;;;;;;;28.00;12.93;;;;;;;3.78;64.25;99834.50;5094432;28;20055;-73
2021/01/24 08:51:59;;;;;;;17.48;7.72;;;;;;;3.80;64.27;99829.53;5076225;28;20048;-73
2021/01/24 08:54:29;;;;;;;8.85;4.25;;;;;;;3.96;64.15;99827.44;5094276;28;20400;-71
2021/01/24 08:57:14;;;;;;;13.55;5.50;;;;;;;3.99;63.94;99826.88;5093889;28;20055;-71
2021/01/24 08:59:48;;;;;;;15.82;5.38;;;;;;;4.08;63.35;99823.19;5076148;28;20048;-74
2021/01/24 09:02:26;;;;;;;13.13;4.47;;;;;;;3.82;64.05;99819.16;5094676;28;20048;-78
2021/01/24 09:04:54;;;;;;;9.32;4.05;;;;;;;3.62;64.37;99813.97;5078266;28;20062;-78
2021/01/24 09:07:23;;;;;;;13.20;5.20;;;;;;;3.94;64.13;99816.84;5076459;28;20052;-71
2021/01/24 09:09:53;;;;;;;10.15;4.97;;;;;;;4.10;63.61;99812.00;5076892;28;20047;-69
2021/01/24 09:12:22;;;;;;;10.70;4.75;;;;;;;4.21;65.27;99803.41;5094143;28;20067;-69
2021/01/24 09:14:54;;;;;;;12.25;5.50;;;;;;;4.32;64.70;99796.69;5073716;28;20075;-71
2021/01/24 09:17:23;;;;;;;12.65;5.35;;;;;;;4.39;63.88;99796.34;5092799;28;20051;-71
2021/01/24 09:19:52;;;;;;;15.82;5.57;;;;;;;4.30;63.94;99806.28;5093603;28;20499;-69
2021/01/24 09:22:19;;;;;;;15.32;6.63;;;;;;;4.16;64.53;99803.47;5093274;28;20423;-73
2021/01/24 09:24:46;;;;;;;12.20;5.85;;;;;;;4.01;65.27;99797.44;5093524;28;20063;-75
2021/01/24 09:27:14;;;;;;;16.63;6.30;;;;;;;3.75;65.74;99783.31;5093388;28;20056;-72
2021/01/24 09:29:41;;;;;;;12.00;5.97;;;;;;;3.58;66.51;99793.88;5092658;28;20066;-71
2021/01/24 09:32:09;;;;;;;12.27;5.90;;;;;;;3.63;66.59;99788.34;5091445;28;20426;-73
2021/01/24 09:34:37;;;;;;;16.48;6.43;;;;;;;3.86;66.12;99776.63;5093463;28;20487;-72
2021/01/24 09:37:04;;;;;;;14.90;6.32;;;;;;;3.82;66.46;99772.88;5074878;28;20055;-74
2021/01/24 09:39:31;;;;;;;15.20;6.63;;;;;;;3.75;66.02;99760.72;5042376;28;20044;-71
2021/01/24 09:41:58;;;;;;;15.23;7.28;;;;;;;4.16;65.27;99759.88;5058015;28;20052;-70
2021/01/24 09:44:25;;;;;;;16.00;7.22;;;;;;;4.07;65.11;99750.75;5093155;28;20055;-73
2021/01/24 09:46:52;;;;;;;15.00;6.78;;;;;;;3.99;65.21;99743.22;5092366;28;20048;-74
2021/01/24 09:49:19;;;;;;;14.15;6.43;;;;;;;3.84;65.47;99732.53;5092720;28;20048;-71
2021/01/24 09:51:46;;;;;;;14.25;6.43;;;;;;;3.84;66.01;99732.53;5058643;28;20052;-76
2021/01/24 09:54:15;;;;;;;13.07;7.00;;;;;;;3.94;65.84;99740.56;5092511;28;20047;-73
2021/01/24 09:56:41;;;;;;;17.88;7.05;;;;;;;4.04;65.15;99726.81;5092930;28;20460;-74
2021/01/24 09:59:09;;;;;;;16.40;7.75;;;;;;;3.88;65.98;99740.94;5074467;28;20510;-75
2021/01/24 10:01:35;;;;;;;15.23;7.38;;;;;;;3.81;66.27;99733.13;5074562;28;20052;-72
2021/01/24 10:04:02;;;;;;;14.48;7.28;;;;;;;3.99;65.75;99726.88;5074468;28;20525;-71
2021/01/24 10:06:29;;;;;;;16.27;8.48;;;;;;;3.86;66.26;99724.06;5075015;28;20048;-73
2021/01/24 10:08:56;;;;;;;19.40;8.13;;;;;;;4.03;66.19;99717.00;5093365;28;20118;-77
2021/01/24 10:11:23;;;;;;;18.10;7.75;;;;;;;4.07;66.44;99714.50;5093416;28;20044;-76
2021/01/24 10:13:50;;;;;;;17.67;9.80;;;;;;;4.02;66.33;99718.13;5092397;28;20043;-73
2021/01/24 10:16:17;;;;;;;16.33;8.20;;;;;;;3.87;66.45;99723.78;5074451;28;20387;-74
2021/01/24 10:18:45;;;;;;;13.55;7.43;;;;;;;3.89;66.53;99726.22;5092516;28;20055;-74
2021/01/24 10:21:12;;;;;;;15.23;7.78;;;;;;;3.79;67.06;99718.16;5093117;28;20036;-75
2021/01/24 10:28:17;;;;;;;15.60;7.05;;;;;;;3.83;67.06;99727.38;5052537;28;20392;-73
2021/01/24 10:30:45;;;;;;;12.48;6.95;;;;;;;3.92;66.60;99721.00;5052974;28;20049;-73
2021/01/24 10:33:13;;;;;;;20.55;11.35;;;;;;;4.06;66.63;99721.06;5059385;28;20357;-75
2021/01/24 10:35:41;;;;;;;18.35;7.63;;;;;;;4.09;66.89;99720.47;5052570;28;20041;-74
2021/01/24 10:42:45;;;;;;;18.73;8.15;;;;;;;4.10;66.23;99717.44;5055440;28;20048;-80
2021/01/24 10:45:13;;;;;;;16.75;7.40;;;;;;;4.27;66.07;99709.56;5056596;28;20049;-78
2021/01/24 10:47:41;;;;;;;17.35;6.28;;;;;;;4.47;65.67;99708.41;5052401;28;20060;-75
2021/01/24 10:50:09;;;;;;;13.40;7.03;;;;;;;4.42;65.90;99703.06;5057735;28;20492;-73
2021/01/24 10:52:38;;;;;;;14.63;7.65;;;;;;;4.34;65.77;99698.28;5058595;28;20072;-74
2021/01/24 10:55:08;;;;;;;15.45;6.80;;;;;;;4.33;65.73;99694.75;5074069;28;20052;-72
2021/01/24 10:57:35;;;;;;;16.73;9.32;;;;;;;4.37;66.62;99695.78;5059207;28;20064;-71
2021/01/24 11:00:04;;;;;;;16.98;6.88;;;;;;;4.33;65.91;99699.38;5058215;28;20049;-72
2021/01/24 11:02:31;;;;;;;19.13;8.25;;;;;;;4.47;65.89;99687.44;5022504;28;20055;-72
2021/01/24 11:04:58;;;;;;;17.42;8.55;;;;;;;4.36;65.87;99690.59;5053654;28;20048;-72
2021/01/24 11:07:25;;;;;;;14.00;7.30;;;;;;;4.46;65.80;99674.88;5053650;28;20049;-72
2021/01/24 11:09:53;;;;;;;14.02;7.20;;;;;;;4.49;65.53;99671.59;5054927;28;20397;-73
2021/01/24 11:12:20;;;;;;;12.95;6.70;;;;;;;4.55;66.10;99677.72;5053715;28;20044;-73
2021/01/24 11:14:47;;;;;;;14.75;6.95;;;;;;;4.34;65.73;99676.47;5053233;28;20064;-74
2021/01/24 11:17:16;;;;;;;13.10;6.53;;;;;;;4.53;65.26;99667.13;5051829;28;20495;-72
2021/01/24 11:19:44;;;;;;;19.15;7.03;;;;;;;4.49;65.99;99663.41;5049590;28;20480;-77
2021/01/24 11:22:11;;;;;;;13.50;7.20;;;;;;;4.54;65.63;99660.59;5055955;28;20056;-72
2021/01/24 11:24:38;;;;;;;19.02;7.57;;;;;;;4.54;65.78;99659.78;5057866;28;20053;-73
2021/01/24 11:27:07;;;;;;;14.73;7.05;;;;;;;4.25;66.20;99649.06;5080863;28;20055;-76
2021/01/24 11:29:34;;;;;;;16.10;6.80;;;;;;;4.48;66.34;99648.13;5063153;28;20232;-73
2021/01/24 11:32:19;;;;;;;112.75;62.10;;;;;;;4.50;66.19;99651.38;5098980;28;20063;-74
2021/01/24 11:35:11;;;;;;;27.23;14.52;;;;;;;4.41;66.17;99642.25;5049409;28;20065;-72
2021/01/24 11:37:39;;;;;;;22.33;10.88;;;;;;;4.46;65.86;99644.91;5091843;28;20048;-72
2021/01/24 11:40:07;;;;;;;27.08;13.35;;;;;;;4.73;65.75;99624.22;5089684;28;20044;-72
2021/01/24 11:42:37;;;;;;;18.02;8.07;;;;;;;4.53;65.77;99625.44;5075832;28;20052;-76
2021/01/24 11:45:05;;;;;;;17.00;7.18;;;;;;;4.62;65.90;99622.81;5094694;28;20051;-74
2021/01/24 11:47:33;;;;;;;16.17;6.68;;;;;;;4.59;66.30;99616.84;5094033;28;20052;-75
2021/01/24 11:50:07;;;;;;;12.82;6.13;;;;;;;4.51;67.33;99614.84;5075595;28;20052;-74
2021/01/24 11:52:36;;;;;;;14.50;6.20;;;;;;;4.52;67.23;99597.34;5095897;28;20040;-72
2021/01/24 11:55:05;;;;;;;14.65;6.32;;;;;;;4.42;68.48;99602.19;5075473;28;20052;-74
2021/01/24 11:57:32;;;;;;;15.60;6.50;;;;;;;4.32;68.69;99605.09;5094653;28;20396;-74
2021/01/24 12:00:00;;;;;;;14.73;6.40;;;;;;;4.43;68.99;99590.16;5091593;28;20514;-75
2021/01/24 12:02:27;;;;;;;14.00;5.93;;;;;;;4.41;69.56;99582.28;5090373;28;20048;-74
2021/01/24 12:05:04;;;;;;;17.52;6.68;;;;;;;4.27;70.28;99586.91;5090011;28;20055;-73
2021/01/24 12:07:34;;;;;;;25.30;9.85;;;;;;;4.20;71.22;99599.31;5071047;28;20074;-73
2021/01/24 12:10:01;;;;;;;14.77;6.80;;;;;;;4.31;71.27;99587.94;5090501;28;20036;-75
2021/01/24 12:12:31;;;;;;;12.30;6.32;;;;;;;4.25;71.52;99583.66;5085297;28;20071;-75
2021/01/24 12:14:58;;;;;;;17.75;7.03;;;;;;;4.30;71.61;99574.59;5085810;28;20044;-71
2021/01/24 12:17:25;;;;;;;29.05;14.05;;;;;;;4.39;71.91;99578.25;5053129;28;20495;-74
2021/01/24 12:19:52;;;;;;;34.08;17.40;;;;;;;4.43;72.44;99568.34;5072627;28;20040;-72
2021/01/24 12:22:19;;;;;;;77.38;37.33;;;;;;;4.30;72.04;99580.88;5088854;28;20048;-73
2021/01/24 12:24:47;;;;;;;16.75;8.18;;;;;;;4.05;73.98;99578.56;5090427;28;20056;-78
2021/01/24 12:27:16;;;;;;;17.70;8.50;;;;;;;4.46;73.95;99570.50;5053041;28;20056;-79
2021/01/24 12:29:44;;;;;;;29.20;14.57;;;;;;;4.15;74.36;99567.50;5059627;28;19927;-74